Time;durP1;ratioP1;P1;durP2;ratioP2;P2;SDS_P1;SDS_P2;PMS_P1;PMS_P2;Temp;Humidity;BMP_temperature;BMP_pressure;BME280_temperature;BME280_humidity;BME280_pressure;Samples;Min_cycle;Max_cycle;Signal;HPM_P1;HPM_P2
2021/08/13 00:01:36;;;;;;;14.00;8.47;;;;;;;15.23;68.77;99335.26;262770;1089;22770;-75
2021/08/13 00:06:41;;;;;;;11.45;8.80;;;;;;;15.11;68.74;99339.58;262882;1090;24223;-74
2021/08/13 00:11:47;;;;;;;11.20;8.30;;;;;;;15.00;69.14;99342.52;262716;1089;23175;-74
2021/08/13 00:16:58;;;;;;;11.03;9.37;;;;;;;14.93;69.43;99341.31;262360;1089;22786;-74
2021/08/13 00:22:04;;;;;;;11.55;8.30;;;;;;;14.87;69.78;99346.02;262797;1088;25880;-75
2021/08/13 00:27:07;;;;;;;9.73;8.33;;;;;;;14.82;70.08;99346.94;262669;1090;22961;-74
2021/08/13 00:32:11;;;;;;;10.90;9.00;;;;;;;14.78;70.32;99347.86;262773;1089;22847;-74
2021/08/13 00:37:16;;;;;;;12.60;9.75;;;;;;;14.73;70.62;99343.34;263036;1088;25880;-74
2021/08/13 00:42:20;;;;;;;11.45;8.80;;;;;;;14.70;70.65;99352.86;262791;1090;26130;-75
2021/08/13 00:47:25;;;;;;;10.97;8.70;;;;;;;14.64;70.74;99350.56;262677;1088;26258;-74
2021/08/13 00:52:45;;;;;;;11.37;9.47;;;;;;;14.63;71.18;99346.27;262902;1089;25880;-74
2021/08/13 00:57:53;;;;;;;15.00;9.50;;;;;;;14.57;71.37;99339.36;262810;1090;23296;-76
2021/08/13 01:03:16;;;;;;;10.25;8.85;;;;;;;14.51;71.36;99344.85;262821;1088;22776;-75
2021/08/13 01:08:25;;;;;;;11.90;8.90;;;;;;;14.46;71.62;99336.86;262774;1090;22771;-74
2021/08/13 01:13:49;;;;;;;12.43;10.13;;;;;;;14.45;71.89;99332.59;262739;1090;22792;-75
2021/08/13 01:19:19;;;;;;;11.30;10.07;;;;;;;14.40;72.11;99338.06;262872;1090;22770;-76
2021/08/13 01:24:25;;;;;;;;;;;;;;;14.29;71.98;99344.75;262512;1089;22800;-75
2021/08/13 01:30:07;;;;;;;13.55;10.60;;;;;;;14.25;72.44;99339.16;262865;1089;21453;-75
2021/08/13 01:35:30;;;;;;;12.95;11.00;;;;;;;14.25;72.76;99349.93;262873;1088;22799;-75
2021/08/13 01:40:36;;;;;;;18.85;10.95;;;;;;;14.20;72.90;99353.53;262957;1089;26050;-74
2021/08/13 01:45:41;;;;;;;13.40;10.60;;;;;;;14.14;72.83;99357.39;262754;1089;23644;-74
2021/08/13 01:50:45;;;;;;;18.50;11.10;;;;;;;14.13;73.17;99349.61;262673;1090;22782;-75
2021/08/13 01:55:50;;;;;;;17.60;12.85;;;;;;;14.18;73.50;99347.63;262960;1090;22769;-74
2021/08/13 02:01:06;;;;;;;15.40;12.40;;;;;;;14.17;73.70;99335.27;262727;1090;22766;-76
2021/08/13 02:06:33;;;;;;;13.27;11.03;;;;;;;14.09;73.79;99344.04;262795;1089;25767;-75
2021/08/13 02:11:45;;;;;;;15.03;10.67;;;;;;;13.98;73.73;99337.24;262800;1088;23487;-75
2021/08/13 02:16:55;;;;;;;14.55;10.90;;;;;;;13.95;74.00;99343.20;262759;1089;22793;-74
2021/08/13 02:22:06;;;;;;;16.43;13.47;;;;;;;13.95;74.55;99337.81;262528;1089;25842;-74
2021/08/13 02:27:10;;;;;;;15.90;12.25;;;;;;;13.92;74.37;99333.84;262738;1089;22769;-75
2021/08/13 02:32:14;;;;;;;13.50;11.30;;;;;;;13.85;74.55;99328.84;262965;1090;22770;-75
2021/08/13 02:37:46;;;;;;;13.75;11.10;;;;;;;13.77;74.41;99324.13;262982;1090;24309;-75
2021/08/13 02:42:56;;;;;;;15.13;12.60;;;;;;;13.77;74.89;99313.36;262853;1090;23024;-73
2021/08/13 02:48:00;;;;;;;;;;;;;;;13.77;75.14;99320.65;262352;1090;22861;-74
2021/08/13 02:53:19;;;;;;;17.75;12.65;;;;;;;13.69;74.92;99324.80;262890;1090;21454;-75
2021/08/13 02:58:27;;;;;;;15.70;12.25;;;;;;;13.64;75.21;99325.70;262937;1088;23571;-75
2021/08/13 03:03:33;;;;;;;15.40;12.50;;;;;;;13.66;75.40;99320.02;262405;1089;22750;-75
2021/08/13 03:08:50;;;;;;;16.25;13.45;;;;;;;13.63;75.11;99321.40;262938;1089;24294;-75
2021/08/13 03:13:54;;;;;;;15.30;12.53;;;;;;;13.56;75.40;99326.37;262705;1089;22770;-75
2021/08/13 03:18:59;;;;;;;17.15;12.75;;;;;;;13.54;75.80;99322.37;262927;1089;22797;-76
2021/08/13 03:24:04;;;;;;;13.70;10.75;;;;;;;13.56;76.11;99314.81;262720;1089;22785;-75
2021/08/13 03:29:08;;;;;;;15.75;12.50;;;;;;;13.59;76.12;99312.31;262907;1089;25908;-75
2021/08/13 03:34:22;;;;;;;18.20;14.10;;;;;;;13.58;76.07;99304.54;262774;1088;25736;-75
2021/08/13 03:39:47;;;;;;;20.27;11.70;;;;;;;13.56;76.25;99298.66;262715;1090;22830;-75
2021/08/13 03:44:51;;;;;;;14.65;12.05;;;;;;;13.57;76.30;99301.06;262769;1090;22851;-75
2021/08/13 03:49:54;;;;;;;15.50;12.60;;;;;;;13.65;76.43;99302.26;262354;1088;22870;-75
2021/08/13 03:54:57;;;;;;;16.90;12.55;;;;;;;13.76;76.55;99302.89;262682;1090;22801;-75
2021/08/13 04:00:07;;;;;;;18.97;13.63;;;;;;;13.85;76.64;99301.09;262859;1089;22931;-75
2021/08/13 04:05:32;;;;;;;14.50;10.75;;;;;;;13.99;76.74;99309.19;262812;1090;23340;-74
2021/08/13 04:10:42;;;;;;;;;;;;;;;14.13;76.54;99311.89;262771;1090;24170;-74
2021/08/13 04:15:49;;;;;;;13.57;11.63;;;;;;;14.16;76.31;99298.64;262788;1089;24604;-75
2021/08/13 04:20:53;;;;;;;15.80;12.70;;;;;;;14.19;76.27;99289.16;262824;1088;24197;-74
2021/08/13 04:25:56;;;;;;;16.23;12.13;;;;;;;14.25;76.28;99297.95;262946;1090;28394;-75
2021/08/13 04:31:02;;;;;;;12.75;10.55;;;;;;;14.34;76.41;99302.33;262765;1088;25902;-75
2021/08/13 04:36:06;;;;;;;13.95;12.35;;;;;;;14.42;76.22;99313.50;262867;1089;26079;-74
2021/08/13 04:41:09;;;;;;;15.80;11.50;;;;;;;14.52;76.31;99318.68;262716;1090;22817;-76
2021/08/13 04:46:15;;;;;;;15.83;11.33;;;;;;;14.60;76.22;99317.19;263005;1090;22789;-75
2021/08/13 04:51:20;;;;;;;11.87;9.47;;;;;;;14.75;76.53;99321.50;262748;1089;22950;-76
2021/08/13 04:56:26;;;;;;;13.05;11.75;;;;;;;14.96;76.61;99328.03;262857;1090;22845;-75
2021/08/13 05:01:29;;;;;;;13.60;10.90;;;;;;;15.18;76.46;99329.97;262784;1088;22833;-75
2021/08/13 05:06:34;;;;;;;14.90;12.20;;;;;;;15.38;76.21;99333.30;262928;1089;22781;-74
2021/08/13 05:11:51;;;;;;;14.33;11.03;;;;;;;15.61;76.33;99336.77;262776;1088;22985;-76
2021/08/13 05:17:08;;;;;;;13.90;10.80;;;;;;;15.83;75.82;99332.50;262743;1090;25881;-74
2021/08/13 05:22:12;;;;;;;13.00;10.90;;;;;;;16.03;75.79;99339.27;262788;1090;24189;-74
2021/08/13 05:27:16;;;;;;;11.40;10.10;;;;;;;16.22;75.58;99349.86;262795;1088;25839;-75
2021/08/13 05:32:33;;;;;;;13.43;10.50;;;;;;;16.38;75.72;99344.81;262934;1088;22793;-75
2021/08/13 05:37:49;;;;;;;11.15;9.83;;;;;;;16.57;75.49;99345.35;262756;1090;22809;-75
2021/08/13 05:42:55;;;;;;;14.07;10.13;;;;;;;16.81;75.01;99346.84;262888;1090;23722;-76
2021/08/13 05:47:58;;;;;;;12.57;10.80;;;;;;;17.04;74.73;99344.02;263513;1089;22769;-76
2021/08/13 05:53:03;;;;;;;13.33;10.77;;;;;;;17.25;74.29;99347.71;263344;1089;22799;-76
2021/08/13 05:58:10;;;;;;;10.75;9.60;;;;;;;17.53;74.28;99344.67;263131;1088;22773;-73
2021/08/13 06:03:14;;;;;;;13.25;10.35;;;;;;;17.81;73.54;99344.30;266762;1089;25829;-74
2021/08/13 06:08:21;;;;;;;11.70;10.05;;;;;;;18.17;73.42;99343.08;263854;1088;23035;-74
2021/08/13 06:13:24;;;;;;;14.80;10.40;;;;;;;18.41;72.68;99347.13;263050;1089;23610;-75
2021/08/13 06:18:43;;;;;;;11.83;10.13;;;;;;;18.70;72.37;99343.63;263181;1090;22787;-75
2021/08/13 06:24:01;;;;;;;14.25;10.00;;;;;;;19.01;71.75;99344.41;262894;1089;24348;-76
2021/08/13 06:29:04;;;;;;;14.10;10.95;;;;;;;19.26;71.23;99346.13;262953;1088;22783;-74
2021/08/13 06:34:09;;;;;;;12.60;9.55;;;;;;;19.65;70.84;99346.72;263052;1088;25868;-75
2021/08/13 06:39:14;;;;;;;12.20;9.20;;;;;;;20.08;69.73;99347.43;262822;1089;22831;-75
2021/08/13 06:44:27;;;;;;;12.75;9.35;;;;;;;20.47;67.81;99338.96;262853;1090;22875;-74
2021/08/13 06:49:39;;;;;;;13.80;10.05;;;;;;;20.48;66.95;99346.78;262984;1089;22797;-74
2021/08/13 06:54:43;;;;;;;12.83;9.90;;;;;;;20.58;67.51;99345.53;262589;1088;22771;-75
2021/08/13 06:59:46;;;;;;;17.30;10.00;;;;;;;20.81;67.34;99347.80;262996;1089;22860;-74
2021/08/13 07:04:50;;;;;;;12.23;10.03;;;;;;;21.09;66.59;99353.28;263027;1089;22924;-75
2021/08/13 07:09:54;;;;;;;17.23;10.38;;;;;;;21.31;65.70;99349.25;263115;1089;22773;-75
2021/08/13 07:14:58;;;;;;;15.73;10.13;;;;;;;21.46;65.86;99358.63;263332;1090;22774;-74
2021/08/13 07:20:05;;;;;;;9.53;8.37;;;;;;;21.51;64.24;99357.58;263357;1089;27205;-76
2021/08/13 07:25:10;;;;;;;12.03;8.30;;;;;;;21.50;64.67;99350.53;262926;1088;22865;-73
2021/08/13 07:30:14;;;;;;;12.90;8.40;;;;;;;21.79;65.42;99357.57;263123;1088;22924;-74
2021/08/13 07:35:17;;;;;;;10.83;8.33;;;;;;;22.09;64.85;99353.64;263085;1089;22934;-72
2021/08/13 07:40:25;;;;;;;13.13;8.90;;;;;;;22.45;64.21;99357.27;263032;1089;22755;-73
2021/08/13 07:45:29;;;;;;;13.88;8.33;;;;;;;22.70;62.72;99346.93;262920;1088;23595;-73
2021/08/13 07:50:33;;;;;;;12.18;8.05;;;;;;;22.95;62.75;99358.41;262669;1090;24479;-70
2021/08/13 07:55:43;;;;;;;9.85;7.65;;;;;;;23.18;62.40;99357.73;263120;1088;22859;-72
2021/08/13 08:00:47;;;;;;;10.00;7.68;;;;;;;23.52;62.22;99347.09;262810;1090;22767;-72
2021/08/13 08:05:50;;;;;;;9.83;7.13;;;;;;;23.94;61.56;99354.52;262939;1089;23755;-72
2021/08/13 08:10:53;;;;;;;9.33;7.13;;;;;;;24.18;60.05;99347.88;262932;1089;22924;-73
2021/08/13 08:15:57;;;;;;;8.15;6.05;;;;;;;24.56;60.23;99361.77;262940;1088;22779;-73
2021/08/13 08:21:02;;;;;;;6.78;6.18;;;;;;;24.60;57.02;99360.69;263011;1088;22872;-73
2021/08/13 08:26:06;;;;;;;9.23;5.95;;;;;;;24.92;57.36;99363.09;262858;1088;27069;-73
2021/08/13 08:31:09;;;;;;;7.30;6.60;;;;;;;25.35;57.57;99362.89;262908;1089;25893;-72
2021/08/13 08:36:12;;;;;;;11.15;7.48;;;;;;;25.47;56.04;99355.57;262840;1089;24457;-72
2021/08/13 08:41:15;;;;;;;7.28;6.60;;;;;;;25.78;55.20;99366.10;262632;1090;24193;-73
2021/08/13 08:46:45;;;;;;;6.83;6.13;;;;;;;25.86;53.86;99357.94;262986;1088;24344;-72
2021/08/13 08:52:03;;;;;;;6.73;6.05;;;;;;;25.73;52.87;99362.88;263454;1089;25992;-73
2021/08/13 08:57:28;;;;;;;7.13;6.43;;;;;;;25.44;52.21;99355.14;263307;1089;22896;-73
2021/08/13 09:02:32;;;;;;;10.45;6.30;;;;;;;25.39;52.36;99366.47;263614;1089;23337;-73
2021/08/13 09:07:35;;;;;;;8.87;7.40;;;;;;;25.41;51.96;99366.86;263347;1090;22931;-73
2021/08/13 09:12:40;;;;;;;11.25;7.78;;;;;;;25.36;52.04;99366.41;262894;1088;22814;-73
2021/08/13 09:17:44;;;;;;;7.98;6.08;;;;;;;25.37;51.24;99371.52;263157;1088;22803;-72
2021/08/13 09:22:47;;;;;;;8.60;6.58;;;;;;;25.45;52.25;99373.18;263237;1088;25858;-73
2021/08/13 09:27:50;;;;;;;7.00;6.30;;;;;;;25.72;51.61;99373.08;263321;1089;25877;-73
2021/08/13 09:33:23;;;;;;;6.48;5.88;;;;;;;25.82;51.18;99363.38;263021;1088;22782;-74
2021/08/13 09:38:28;;;;;;;8.40;7.30;;;;;;;25.90;51.17;99375.22;263578;1089;25883;-73
2021/08/13 09:43:33;;;;;;;7.77;6.10;;;;;;;26.10;51.53;99368.36;263706;1088;26258;-73
2021/08/13 09:48:39;;;;;;;7.93;6.05;;;;;;;26.27;51.59;99374.39;263359;1088;22770;-72
2021/08/13 09:53:59;;;;;;;7.23;6.30;;;;;;;26.45;51.54;99375.31;263675;1087;23631;-72
2021/08/13 09:59:14;;;;;;;6.48;5.88;;;;;;;26.58;50.02;99364.83;263150;1089;24448;-73
2021/08/13 10:04:19;;;;;;;6.68;5.98;;;;;;;26.60;50.23;99356.98;262817;1089;22825;-73
2021/08/13 10:09:29;;;;;;;7.13;6.43;;;;;;;26.72;48.84;99363.36;262931;1089;25893;-72
2021/08/13 10:14:41;;;;;;;4.63;4.23;;;;;;;26.74;48.06;99367.30;263018;1089;22864;-72
2021/08/13 10:19:52;;;;;;;6.58;5.00;;;;;;;27.00;48.12;99368.22;263016;1089;24358;-72
2021/08/13 10:24:59;;;;;;;5.98;5.48;;;;;;;26.75;48.20;99352.40;263574;1089;23040;-71
2021/08/13 10:30:03;;;;;;;6.00;5.50;;;;;;;26.90;48.71;99355.99;263245;1089;25350;-72
2021/08/13 10:35:12;;;;;;;5.83;5.17;;;;;;;27.04;48.18;99349.78;262613;1088;22766;-73
2021/08/13 10:40:18;;;;;;;5.80;5.30;;;;;;;27.23;48.06;99345.16;263056;1089;27536;-73
2021/08/13 10:45:23;;;;;;;5.65;5.15;;;;;;;27.43;48.32;99335.41;263060;1088;23780;-72
2021/08/13 10:50:27;;;;;;;5.93;5.28;;;;;;;27.66;48.35;99351.59;262879;1089;25908;-71
2021/08/13 10:55:42;;;;;;;5.30;4.80;;;;;;;27.88;47.90;99345.33;263054;1088;22770;-71
2021/08/13 11:00:58;;;;;;;5.63;4.75;;;;;;;28.00;44.98;99345.76;263173;1088;22821;-71
2021/08/13 11:06:04;;;;;;;5.83;4.87;;;;;;;27.92;46.02;99351.63;266341;1089;24326;-71
2021/08/13 11:11:20;;;;;;;7.35;5.08;;;;;;;28.05;45.07;99339.09;262739;1090;22772;-71
2021/08/13 11:16:45;;;;;;;;;;;;;;;27.95;45.42;99329.63;263561;1088;24310;-72
2021/08/13 11:21:55;;;;;;;6.23;5.63;;;;;;;27.99;44.95;99321.38;263493;1089;24515;-71
2021/08/13 11:26:58;;;;;;;6.58;5.50;;;;;;;28.09;45.47;99311.54;262738;1089;22783;-71
2021/08/13 11:32:24;;;;;;;6.63;5.88;;;;;;;28.16;45.35;99311.53;263030;1089;22751;-71
2021/08/13 11:37:27;;;;;;;7.53;5.80;;;;;;;28.40;46.09;99309.95;263387;1089;22744;-72
2021/08/13 11:42:44;;;;;;;5.93;5.08;;;;;;;28.57;45.70;99313.04;263350;1089;27254;-71
2021/08/13 11:48:22;;;;;;;5.23;4.43;;;;;;;28.59;43.08;99307.94;264188;1089;22791;-71
2021/08/13 11:53:45;;;;;;;5.38;4.33;;;;;;;28.42;43.52;99315.84;263646;1089;22828;-70
2021/08/13 11:59:05;;;;;;;5.65;4.75;;;;;;;28.42;43.60;99315.06;263262;1089;22777;-71
2021/08/13 12:04:25;;;;;;;6.18;4.50;;;;;;;28.54;44.50;99306.35;263210;1088;22797;-71
2021/08/13 12:09:37;;;;;;;5.10;4.60;;;;;;;28.58;43.21;99287.06;262912;1090;22815;-70
2021/08/13 12:14:50;;;;;;;8.20;5.10;;;;;;;28.67;43.97;99301.25;262905;1089;25586;-70
2021/08/13 12:19:55;;;;;;;5.75;5.15;;;;;;;28.71;43.13;99292.95;263222;1089;22769;-71
2021/08/13 12:25:16;;;;;;;6.78;5.60;;;;;;;28.78;43.30;99288.22;262731;1089;25881;-70
2021/08/13 12:30:46;;;;;;;8.13;6.73;;;;;;;28.95;43.30;99285.80;262921;1090;22775;-70
2021/08/13 12:36:16;;;;;;;5.37;4.30;;;;;;;28.90;43.43;99272.41;262629;1089;22852;-70
2021/08/13 12:41:22;;;;;;;8.95;5.60;;;;;;;28.89;42.92;99270.84;262444;1090;22769;-72
2021/08/13 12:46:29;;;;;;;7.60;5.33;;;;;;;28.76;43.02;99251.98;262595;1088;22924;-72
2021/08/13 12:51:33;;;;;;;6.68;6.08;;;;;;;28.80;42.96;99255.52;262862;1089;26248;-71
2021/08/13 12:56:39;;;;;;;5.95;5.35;;;;;;;28.71;43.23;99248.86;263024;1089;22862;-72
2021/08/13 13:02:00;;;;;;;6.38;5.78;;;;;;;28.76;42.84;99262.23;262666;1089;23500;-72
2021/08/13 13:07:35;;;;;;;5.88;5.23;;;;;;;28.83;44.16;99251.17;262745;1089;22790;-72
2021/08/13 13:12:40;;;;;;;6.43;5.43;;;;;;;28.94;43.89;99248.38;262977;1088;23279;-72
2021/08/13 13:17:59;;;;;;;6.20;5.60;;;;;;;29.14;43.60;99248.65;262877;1089;22804;-72
2021/08/13 13:23:08;;;;;;;9.60;5.50;;;;;;;29.30;44.16;99242.69;262789;1089;25852;-71
2021/08/13 13:28:32;;;;;;;7.15;5.95;;;;;;;29.35;43.51;99243.05;262990;1088;22763;-72
2021/08/13 13:34:00;;;;;;;6.10;5.50;;;;;;;29.52;43.47;99244.10;262586;1088;22776;-71
2021/08/13 13:39:37;;;;;;;11.75;10.43;;;;;;;29.53;42.98;99231.08;262639;1090;24170;-71
2021/08/13 13:45:15;;;;;;;11.95;10.75;;;;;;;29.72;42.93;99234.47;262809;1090;22743;-71
2021/08/13 13:50:21;;;;;;;10.58;7.03;;;;;;;29.76;42.75;99224.98;262955;1090;24316;-69
2021/08/13 13:55:26;;;;;;;7.90;5.48;;;;;;;29.82;42.75;99215.06;262825;1089;23683;-71
2021/08/13 14:00:43;;;;;;;7.10;5.78;;;;;;;29.90;42.43;99218.58;262806;1090;22825;-70
2021/08/13 14:06:07;;;;;;;8.05;5.73;;;;;;;29.83;42.03;99213.10;264000;1090;27210;-70
2021/08/13 14:11:10;;;;;;;9.65;6.23;;;;;;;29.97;43.23;99209.42;262968;1090;22809;-69
2021/08/13 14:16:15;;;;;;;6.50;5.85;;;;;;;29.98;42.02;99203.52;261825;1088;25890;-70
2021/08/13 14:21:19;;;;;;;6.33;5.48;;;;;;;30.08;42.70;99198.27;262004;1090;24319;-70
2021/08/13 14:26:22;;;;;;;6.78;5.45;;;;;;;30.19;42.11;99199.74;262037;1090;25878;-70
2021/08/13 14:31:27;;;;;;;5.85;5.05;;;;;;;30.14;42.28;99191.89;261973;1089;24364;-70
2021/08/13 14:36:31;;;;;;;7.48;5.30;;;;;;;30.07;42.35;99191.17;261654;1090;22723;-70
2021/08/13 14:41:35;;;;;;;7.13;5.18;;;;;;;30.06;42.00;99186.86;262534;1090;25999;-68
2021/08/13 14:46:51;;;;;;;6.15;5.48;;;;;;;30.08;42.77;99182.50;261942;1090;24045;-71
2021/08/13 14:52:11;;;;;;;6.08;5.48;;;;;;;30.03;42.43;99182.94;262549;1090;26265;-70
2021/08/13 14:57:15;;;;;;;9.80;6.57;;;;;;;29.74;42.63;99177.66;262542;1090;22793;-69
2021/08/13 15:02:20;;;;;;;7.25;6.55;;;;;;;29.77;43.15;99182.36;262573;1089;24415;-70
2021/08/13 15:07:24;;;;;;;7.48;6.83;;;;;;;29.89;43.58;99181.11;262574;1089;22863;-71
2021/08/13 15:12:30;;;;;;;7.08;6.38;;;;;;;30.09;42.55;99169.47;262567;1089;26002;-71
2021/08/13 15:17:38;;;;;;;7.08;6.38;;;;;;;30.14;42.97;99163.50;263465;1089;27233;-70
2021/08/13 15:22:41;;;;;;;6.25;5.65;;;;;;;30.36;43.78;99150.19;262704;1090;24460;-69
2021/08/13 15:27:46;;;;;;;9.00;5.68;;;;;;;30.66;42.98;99154.20;262635;1089;22767;-70
2021/08/13 15:32:50;;;;;;;6.40;5.75;;;;;;;30.68;42.27;99158.12;262702;1089;22771;-70
2021/08/13 15:38:01;;;;;;;6.00;5.40;;;;;;;30.59;41.75;99149.54;262563;1089;25878;-70
2021/08/13 15:43:05;;;;;;;6.00;5.50;;;;;;;30.39;42.10;99152.15;262524;1089;22815;-71
2021/08/13 15:48:12;;;;;;;5.93;5.33;;;;;;;30.28;42.18;99145.98;262634;1089;24307;-70
2021/08/13 15:53:32;;;;;;;6.38;5.78;;;;;;;30.15;42.58;99140.19;262537;1089;24069;-70
2021/08/13 15:58:35;;;;;;;8.63;5.53;;;;;;;30.06;42.19;99135.16;262508;1090;26114;-70
2021/08/13 16:03:40;;;;;;;6.75;5.65;;;;;;;29.85;42.46;99136.95;262544;1088;22779;-71
2021/08/13 16:08:44;;;;;;;5.85;5.18;;;;;;;29.68;42.56;99138.68;262311;1088;23324;-70
2021/08/13 16:13:48;;;;;;;5.60;5.20;;;;;;;29.47;43.32;99133.38;262589;1089;24303;-71
2021/08/13 16:18:52;;;;;;;8.10;5.65;;;;;;;29.26;43.52;99131.58;262519;1090;22857;-70
2021/08/13 16:23:55;;;;;;;7.03;6.30;;;;;;;29.03;43.97;99143.91;262528;1088;25884;-69
2021/08/13 16:28:59;;;;;;;8.23;6.25;;;;;;;28.90;44.12;99138.09;261928;1089;24304;-69
2021/08/13 16:34:02;;;;;;;8.73;7.23;;;;;;;28.78;44.40;99138.56;262359;1089;22819;-71
2021/08/13 16:39:15;;;;;;;6.18;5.50;;;;;;;28.57;44.47;99136.68;262500;1089;25999;-71
2021/08/13 16:44:20;;;;;;;6.80;5.78;;;;;;;28.33;45.10;99141.91;262472;1090;22825;-70
2021/08/13 16:49:36;;;;;;;7.53;6.75;;;;;;;28.09;45.54;99138.06;262480;1088;26034;-71
2021/08/13 16:55:00;;;;;;;6.50;5.60;;;;;;;27.78;46.26;99127.48;262466;1090;23012;-70
2021/08/13 17:00:07;;;;;;;8.87;6.50;;;;;;;27.57;46.90;99131.06;262497;1090;22780;-70
2021/08/13 17:05:11;;;;;;;9.75;7.53;;;;;;;27.36;47.69;99120.86;262575;1089;22803;-70
2021/08/13 17:10:18;;;;;;;9.23;8.13;;;;;;;27.15;47.77;99118.87;262566;1090;22837;-70
2021/08/13 17:15:43;;;;;;;6.63;5.67;;;;;;;26.93;48.59;99112.56;262494;1088;26299;-70
2021/08/13 17:20:46;;;;;;;9.88;6.98;;;;;;;26.74;48.73;99103.51;261918;1088;22838;-70
2021/08/13 17:25:50;;;;;;;7.95;6.20;;;;;;;26.56;49.32;99114.42;262033;1088;25877;-70
2021/08/13 17:30:54;;;;;;;9.38;7.50;;;;;;;26.36;49.71;99113.17;261951;1089;25903;-71
2021/08/13 17:35:57;;;;;;;7.15;6.55;;;;;;;26.16;50.57;99118.20;262682;1090;25890;-70
2021/08/13 17:41:00;;;;;;;7.63;6.88;;;;;;;25.94;50.77;99118.08;262483;1089;22940;-71
2021/08/13 17:46:04;;;;;;;10.60;9.40;;;;;;;25.74;51.45;99117.55;262524;1089;25887;-69
2021/08/13 17:51:09;;;;;;;10.00;7.70;;;;;;;25.56;51.74;99122.91;261921;1090;22789;-70
2021/08/13 17:56:14;;;;;;;8.00;7.20;;;;;;;25.36;51.77;99125.12;262426;1090;26255;-70
2021/08/13 18:01:29;;;;;;;9.78;7.60;;;;;;;25.18;52.21;99122.20;262721;1089;25880;-70
2021/08/13 18:06:49;;;;;;;10.80;9.58;;;;;;;24.94;53.10;99121.59;262199;1090;22925;-71
2021/08/13 18:12:04;;;;;;;8.43;7.55;;;;;;;24.73;53.39;99133.89;262528;1089;24206;-71
2021/08/13 18:17:16;;;;;;;9.50;8.25;;;;;;;24.52;53.53;99136.38;262557;1089;25877;-70
2021/08/13 18:22:20;;;;;;;10.85;8.40;;;;;;;24.32;53.78;99142.01;262525;1090;22792;-72
2021/08/13 18:27:24;;;;;;;22.13;19.33;;;;;;;24.15;54.58;99145.29;262000;1088;22865;-70
2021/08/13 18:32:27;;;;;;;10.15;7.18;;;;;;;23.99;55.29;99150.95;261916;1088;22845;-70
2021/08/13 18:37:30;;;;;;;11.45;7.60;;;;;;;23.87;55.27;99147.27;262083;1088;28316;-71
2021/08/13 18:42:36;;;;;;;9.40;8.40;;;;;;;23.75;55.62;99150.19;262549;1088;24322;-71
2021/08/13 18:47:39;;;;;;;12.10;8.53;;;;;;;23.64;56.22;99146.50;262696;1089;22756;-71
2021/08/13 18:52:42;;;;;;;13.17;8.20;;;;;;;23.51;56.45;99152.16;262764;1089;22803;-70
2021/08/13 18:57:45;;;;;;;9.45;6.98;;;;;;;23.40;57.02;99151.98;262552;1089;25960;-70
2021/08/13 19:02:48;;;;;;;11.65;7.75;;;;;;;23.32;57.42;99147.58;262588;1088;25878;-70
2021/08/13 19:08:05;;;;;;;11.18;7.98;;;;;;;23.25;57.80;99150.16;262573;1089;25874;-70
2021/08/13 19:13:09;;;;;;;8.05;6.90;;;;;;;23.17;58.34;99160.20;262575;1089;22787;-71
2021/08/13 19:18:26;;;;;;;10.00;7.60;;;;;;;23.07;58.79;99158.83;262701;1090;25877;-71
2021/08/13 19:23:49;;;;;;;9.40;7.63;;;;;;;22.98;58.89;99155.53;262251;1089;22930;-72
2021/08/13 19:28:53;;;;;;;9.20;7.00;;;;;;;22.89;58.94;99142.11;262536;1088;22818;-71
2021/08/13 19:33:56;;;;;;;11.05;7.13;;;;;;;22.83;59.47;99145.49;262491;1089;24064;-70
2021/08/13 19:39:00;;;;;;;8.98;7.83;;;;;;;22.76;59.89;99156.28;262561;1088;24460;-71
2021/08/13 19:44:04;;;;;;;10.20;8.00;;;;;;;22.66;60.40;99152.98;262552;1090;25890;-70
2021/08/13 19:49:10;;;;;;;10.15;8.83;;;;;;;22.58;60.68;99156.74;262532;1090;22837;-71
2021/08/13 19:54:13;;;;;;;10.05;8.38;;;;;;;22.49;60.98;99162.39;262674;1089;24313;-70
2021/08/13 19:59:18;;;;;;;10.55;9.10;;;;;;;22.40;61.16;99159.11;262471;1088;22831;-70
2021/08/13 20:04:33;;;;;;;9.58;8.23;;;;;;;22.33;61.49;99158.91;262511;1090;22911;-71
2021/08/13 20:09:57;;;;;;;11.08;8.25;;;;;;;22.24;62.19;99163.80;262444;1089;22793;-71
2021/08/13 20:15:03;;;;;;;10.43;7.73;;;;;;;22.17;62.23;99162.47;262482;1089;25944;-70
2021/08/13 20:20:16;;;;;;;11.53;9.83;;;;;;;22.11;62.80;99166.64;262479;1090;23372;-71
2021/08/13 20:25:21;;;;;;;9.30;8.28;;;;;;;22.03;63.00;99168.44;262281;1090;24775;-71
2021/08/13 20:30:24;;;;;;;12.60;9.47;;;;;;;21.96;63.37;99160.06;262843;1090;22790;-69
2021/08/13 20:35:27;;;;;;;13.07;8.87;;;;;;;21.91;63.31;99170.46;262648;1090;22777;-70
2021/08/13 20:40:30;;;;;;;10.90;9.65;;;;;;;21.85;63.55;99169.95;262311;1089;25765;-69
2021/08/13 20:45:34;;;;;;;12.80;9.57;;;;;;;21.75;63.88;99160.37;262111;1089;22811;-69
2021/08/13 20:50:38;;;;;;;10.83;8.38;;;;;;;21.66;64.40;99157.84;262172;1089;22796;-71
2021/08/13 20:55:42;;;;;;;9.47;8.20;;;;;;;21.59;64.43;99160.40;262549;1089;24195;-71
2021/08/13 21:00:45;;;;;;;13.27;10.10;;;;;;;21.53;65.08;99161.80;262500;1089;23577;-70
2021/08/13 21:05:49;;;;;;;9.83;8.60;;;;;;;21.46;64.98;99156.14;262230;1089;24476;-71
2021/08/13 21:10:52;;;;;;;9.70;8.63;;;;;;;21.40;65.81;99154.83;262523;1090;22924;-70
2021/08/13 21:15:56;;;;;;;12.73;8.93;;;;;;;21.34;65.29;99141.47;262624;1090;24005;-69
2021/08/13 21:20:59;;;;;;;11.23;8.45;;;;;;;21.32;65.78;99142.95;262572;1088;22882;-70
2021/08/13 21:26:19;;;;;;;9.65;8.60;;;;;;;21.31;65.77;99136.72;262637;1089;22786;-72
2021/08/13 21:31:23;;;;;;;10.70;8.17;;;;;;;21.29;65.99;99127.31;262490;1089;22823;-71
2021/08/13 21:36:39;;;;;;;9.20;8.20;;;;;;;21.25;66.48;99134.61;262493;1090;22921;-70
2021/08/13 21:41:56;;;;;;;9.38;8.38;;;;;;;21.18;66.48;99127.04;262522;1088;25880;-70
2021/08/13 21:47:00;;;;;;;9.23;7.67;;;;;;;21.12;66.79;99134.68;262556;1090;22956;-71
2021/08/13 21:52:06;;;;;;;12.45;8.78;;;;;;;21.07;66.94;99134.16;262519;1090;24189;-71
2021/08/13 21:57:22;;;;;;;12.55;8.75;;;;;;;20.98;67.54;99137.83;262575;1089;22981;-71
2021/08/13 22:02:44;;;;;;;11.37;8.27;;;;;;;20.89;67.35;99126.33;262558;1090;25880;-69
2021/08/13 22:07:48;;;;;;;10.63;8.57;;;;;;;20.80;67.79;99123.77;262740;1089;22862;-70
2021/08/13 22:12:52;;;;;;;15.00;9.20;;;;;;;;;;262567;1090;24351;-71
2021/08/13 22:17:58;;;;;;;11.35;9.08;;;;;;;20.65;68.22;99127.19;262584;1089;25234;-71
2021/08/13 22:23:02;;;;;;;12.87;8.50;;;;;;;20.63;68.85;99130.26;262581;1088;25881;-71
2021/08/13 22:28:07;;;;;;;10.07;8.60;;;;;;;20.60;69.06;99128.23;262562;1088;25736;-70
2021/08/13 22:33:11;;;;;;;9.67;8.03;;;;;;;20.59;68.99;99134.03;262578;1089;22808;-70
2021/08/13 22:38:15;;;;;;;9.28;8.23;;;;;;;20.56;69.23;99135.51;262577;1090;25884;-70
2021/08/13 22:43:19;;;;;;;11.40;8.60;;;;;;;20.52;69.44;99134.61;262520;1089;24358;-71
2021/08/13 22:48:36;;;;;;;11.70;9.00;;;;;;;20.48;69.58;99126.37;262461;1090;25995;-69
2021/08/13 22:53:43;;;;;;;9.65;8.15;;;;;;;20.46;69.64;99122.41;262167;1090;26053;-71
2021/08/13 22:58:48;;;;;;;11.48;8.18;;;;;;;20.44;69.64;99125.48;262617;1090;26012;-70
2021/08/13 23:03:52;;;;;;;9.80;8.20;;;;;;;20.46;70.04;99120.47;262555;1090;22793;-70
2021/08/13 23:08:55;;;;;;;9.57;7.93;;;;;;;20.44;70.22;99122.75;262594;1089;22741;-70
2021/08/13 23:13:59;;;;;;;10.58;7.85;;;;;;;20.43;70.28;99128.55;262512;1089;25861;-71
2021/08/13 23:19:05;;;;;;;9.57;8.43;;;;;;;20.43;70.21;99123.10;262548;1089;22816;-70
2021/08/13 23:24:20;;;;;;;9.75;7.95;;;;;;;20.43;70.54;99117.66;262508;1090;22776;-70
2021/08/13 23:29:23;;;;;;;10.03;6.97;;;;;;;20.44;70.73;99113.78;262488;1090;25970;-71
2021/08/13 23:34:26;;;;;;;12.07;8.23;;;;;;;20.45;70.60;99113.44;262460;1090;25887;-70
2021/08/13 23:39:29;;;;;;;9.53;7.70;;;;;;;20.45;70.67;99102.55;262477;1089;25878;-70
2021/08/13 23:44:33;;;;;;;8.90;7.23;;;;;;;20.47;70.45;99104.95;262593;1090;23369;-70
2021/08/13 23:49:36;;;;;;;8.27;7.47;;;;;;;20.49;70.42;99098.00;262527;1089;24348;-71